In Rescue
 
Open Full Screen Window  High Contrast Mode
Wind Gusting 00 knots
07
October 25, 2021 3:50 PM EDT
Weather Information
Wind Direction
  010 °
Wind Speed
  07 kt (8 mph)
Wind Gust
  00 kt (0 mph)
Variable Wind
340°
050°
Altimeter
29.79 in
Visibility
10 SM
Temperature
08° C
46° F
Dewpoint
07° C
45° F
Humidity
93%
1hr Rain Fall
00.01 in.
24hr Rain Fall
02.33 in.
Sky Condition
Overcast @ 1,000 ft
MVFR

METAR KRMY 251950Z AUTO 01007KT 340V050 10SM OVC010 08/07 A2979 RMK AO2 T00810068 P0001

FAA Disclaimer: The data displayed is for advisory purposes only and is not to be used for flight planning or operations.